Time;durP1;ratioP1;P1;durP2;ratioP2;P2;SDS_P1;SDS_P2;PMS_P1;PMS_P2;Temp;Humidity;BMP_temperature;BMP_pressure;BME280_temperature;BME280_humidity;BME280_pressure;Samples;Min_cycle;Max_cycle;Signal;HPM_P1;HPM_P2
2021/06/27 00:01:31;;;;;;;13.75;12.55;;;15.50;79.60;;;;;;5158680;28;20097;-68
2021/06/27 00:04:04;;;;;;;13.35;12.15;;;15.50;79.80;;;;;;5159564;28;20065;-68
2021/06/27 00:06:36;;;;;;;13.48;12.48;;;15.50;80.20;;;;;;5157013;28;20580;-68
2021/06/27 00:09:08;;;;;;;13.32;12.25;;;15.50;80.00;;;;;;5157018;28;20039;-68
2021/06/27 00:11:40;;;;;;;13.52;12.52;;;15.50;80.20;;;;;;5159014;28;20097;-68
2021/06/27 00:14:13;;;;;;;13.75;12.65;;;15.50;80.40;;;;;;5160374;28;20057;-68
2021/06/27 00:16:46;;;;;;;14.07;12.75;;;15.40;80.40;;;;;;5158004;28;21464;-69
2021/06/27 00:19:21;;;;;;;14.18;12.98;;;15.40;80.70;;;;;;5157627;28;20050;-68
2021/06/27 00:21:53;;;;;;;14.05;13.00;;;15.40;79.80;;;;;;5158738;28;20129;-68
2021/06/27 00:24:25;;;;;;;13.93;12.93;;;15.40;80.50;;;;;;5162464;28;20131;-68
2021/06/27 00:26:56;;;;;;;13.88;12.88;;;15.40;80.10;;;;;;5156126;28;20122;-70
2021/06/27 00:29:28;;;;;;;13.75;12.65;;;15.40;80.40;;;;;;5156175;28;20042;-69
2021/06/27 00:32:00;;;;;;;13.77;12.68;;;15.40;80.40;;;;;;5157992;28;20033;-68
2021/06/27 00:34:32;;;;;;;13.55;12.55;;;15.30;79.40;;;;;;5158027;28;20566;-69
2021/06/27 00:37:04;;;;;;;12.90;11.95;;;15.30;79.80;;;;;;5157007;28;20046;-68
2021/06/27 00:39:36;;;;;;;13.02;11.82;;;15.30;80.00;;;;;;5159880;28;20035;-68
2021/06/27 00:42:08;;;;;;;12.50;11.57;;;15.30;79.90;;;;;;5157411;28;20473;-68
2021/06/27 00:44:40;;;;;;;13.13;12.07;;;15.30;79.50;;;;;;5159423;28;20062;-68
2021/06/27 00:47:12;;;;;;;13.32;12.30;;;15.30;79.00;;;;;;5144827;28;20129;-68
2021/06/27 00:49:44;;;;;;;13.68;12.38;;;15.30;79.80;;;;;;5160997;28;20069;-68
2021/06/27 00:52:16;;;;;;;13.18;12.15;;;15.30;78.70;;;;;;5156801;28;20039;-69
2021/06/27 00:54:48;;;;;;;13.23;12.23;;;15.40;78.40;;;;;;5158671;28;20125;-68
2021/06/27 00:57:20;;;;;;;12.88;11.77;;;15.30;78.80;;;;;;5154316;28;20396;-68
2021/06/27 00:59:52;;;;;;;13.45;12.35;;;15.30;78.50;;;;;;5160428;28;20112;-68
2021/06/27 01:02:24;;;;;;;13.38;12.38;;;15.30;78.30;;;;;;5160367;28;20133;-68
2021/06/27 01:04:56;;;;;;;13.80;12.80;;;15.30;78.70;;;;;;5161880;28;20153;-70
2021/06/27 01:07:28;;;;;;;13.63;12.63;;;15.30;79.40;;;;;;5158120;28;20050;-68
2021/06/27 01:10:00;;;;;;;13.57;12.57;;;15.30;79.70;;;;;;5163985;28;20041;-68
2021/06/27 01:12:32;;;;;;;14.23;12.80;;;15.20;79.90;;;;;;5163333;28;20047;-69
2021/06/27 01:15:06;;;;;;;13.10;12.10;;;15.20;78.70;;;;;;5163305;28;20039;-68
2021/06/27 01:17:41;;;;;;;13.48;12.43;;;15.10;79.20;;;;;;5161349;28;20069;-68
2021/06/27 01:20:18;;;;;;;13.70;12.60;;;15.10;79.70;;;;;;5176546;28;20130;-68
2021/06/27 01:22:50;;;;;;;13.45;12.35;;;15.10;79.60;;;;;;5161678;28;20401;-68
2021/06/27 01:25:30;;;;;;;13.55;12.55;;;15.00;79.50;;;;;;5162701;28;20046;-68
2021/06/27 01:28:04;;;;;;;13.48;12.48;;;15.00;79.00;;;;;;5160723;28;20092;-69
2021/06/27 01:30:36;;;;;;;13.45;12.23;;;14.90;79.30;;;;;;5160556;28;20129;-68
2021/06/27 01:33:15;;;;;;;13.45;12.45;;;14.90;80.00;;;;;;5161089;28;20681;-68
2021/06/27 01:35:48;;;;;;;14.25;13.15;;;14.80;79.80;;;;;;5162978;28;20121;-69
2021/06/27 01:38:21;;;;;;;13.25;12.25;;;14.80;80.40;;;;;;5160765;28;20045;-68
2021/06/27 01:40:53;;;;;;;13.48;12.48;;;14.70;80.90;;;;;;5161944;28;20464;-68
2021/06/27 01:43:25;;;;;;;13.88;12.68;;;14.70;80.50;;;;;;5162328;28;20070;-68
2021/06/27 01:46:02;;;;;;;13.88;12.73;;;14.60;80.70;;;;;;5164090;28;20145;-68
2021/06/27 01:48:36;;;;;;;14.00;12.93;;;14.60;80.20;;;;;;5161853;28;20042;-69
2021/06/27 01:51:08;;;;;;;13.98;12.98;;;14.60;79.80;;;;;;5162929;28;20046;-68
2021/06/27 01:53:41;;;;;;;13.30;12.30;;;14.60;79.60;;;;;;5161436;28;20136;-68
2021/06/27 01:56:13;;;;;;;13.32;12.32;;;14.70;79.90;;;;;;5163089;28;20138;-68
2021/06/27 01:58:50;;;;;;;13.15;12.25;;;14.70;79.60;;;;;;5161854;28;20160;-69
2021/06/27 02:01:48;;;;;;;13.73;12.63;;;14.70;79.30;;;;;;5164072;28;20602;-68
2021/06/27 02:04:20;;;;;;;13.18;12.23;;;14.80;79.00;;;;;;5162598;28;20043;-69
2021/06/27 02:06:52;;;;;;;13.13;12.13;;;14.80;78.30;;;;;;5160055;28;20096;-68
2021/06/27 02:09:24;;;;;;;13.18;12.18;;;14.70;79.30;;;;;;5157311;28;20042;-69
2021/06/27 02:11:56;;;;;;;12.70;11.70;;;14.80;78.80;;;;;;5158992;28;20508;-68
2021/06/27 02:14:28;;;;;;;12.93;11.93;;;14.70;79.50;;;;;;5160650;28;20061;-68
2021/06/27 02:17:00;;;;;;;12.95;11.85;;;14.70;78.80;;;;;;5161190;28;20137;-68
2021/06/27 02:19:33;;;;;;;12.35;11.45;;;14.70;78.70;;;;;;5149579;28;20141;-68
2021/06/27 02:22:06;;;;;;;12.65;11.75;;;14.60;79.80;;;;;;5161605;28;20057;-68
2021/06/27 02:24:38;;;;;;;12.63;11.65;;;14.50;79.50;;;;;;5161729;28;20121;-68
2021/06/27 02:27:10;;;;;;;12.82;11.93;;;14.40;79.60;;;;;;5157743;28;20636;-68
2021/06/27 02:29:42;;;;;;;12.65;11.75;;;14.40;79.50;;;;;;5159147;28;20050;-68
2021/06/27 02:32:14;;;;;;;12.68;11.48;;;14.40;79.70;;;;;;5163568;28;20046;-68
2021/06/27 02:34:46;;;;;;;12.82;11.68;;;14.50;79.60;;;;;;5161990;28;20042;-68
2021/06/27 02:37:18;;;;;;;13.55;12.45;;;14.50;80.30;;;;;;5158652;28;20043;-68
2021/06/27 02:39:50;;;;;;;13.02;12.02;;;14.50;80.40;;;;;;5160611;28;20097;-69
2021/06/27 02:42:21;;;;;;;13.25;12.23;;;14.40;80.10;;;;;;5165012;28;20050;-68
2021/06/27 02:44:54;;;;;;;12.88;11.88;;;14.40;80.20;;;;;;5159680;28;20074;-68
2021/06/27 02:47:26;;;;;;;12.80;11.77;;;14.40;80.60;;;;;;5158710;28;20073;-68
2021/06/27 02:49:58;;;;;;;13.10;12.10;;;14.30;80.70;;;;;;5161842;28;20843;-68
2021/06/27 02:52:30;;;;;;;12.48;11.50;;;14.30;80.60;;;;;;5159060;28;21496;-69
2021/06/27 02:55:03;;;;;;;12.38;11.48;;;14.30;80.90;;;;;;5162160;28;20147;-67
2021/06/27 02:57:36;;;;;;;13.10;12.10;;;14.30;80.60;;;;;;5159488;28;20078;-68
2021/06/27 03:00:13;;;;;;;12.77;11.75;;;14.30;81.60;;;;;;5158763;28;20133;-67
2021/06/27 03:02:45;;;;;;;12.40;11.50;;;14.20;81.80;;;;;;5158826;28;20034;-69
2021/06/27 03:05:18;;;;;;;12.60;11.43;;;14.20;80.60;;;;;;5163845;28;20475;-68
2021/06/27 03:07:50;;;;;;;13.07;11.73;;;14.20;80.70;;;;;;5159828;28;20038;-68
2021/06/27 03:10:22;;;;;;;13.23;12.23;;;14.20;80.10;;;;;;5160432;28;20054;-68
2021/06/27 03:12:54;;;;;;;12.90;11.88;;;14.20;79.90;;;;;;5158737;28;20527;-68
2021/06/27 03:15:26;;;;;;;12.70;11.80;;;14.20;80.00;;;;;;5162274;28;20046;-68
2021/06/27 03:17:59;;;;;;;12.95;11.95;;;14.20;80.60;;;;;;5161280;28;20129;-68
2021/06/27 03:20:31;;;;;;;13.40;12.30;;;14.20;80.30;;;;;;5161650;28;20041;-68
2021/06/27 03:23:04;;;;;;;12.82;11.93;;;14.30;80.40;;;;;;5161821;28;20042;-68
2021/06/27 03:25:36;;;;;;;13.48;12.48;;;14.30;79.90;;;;;;5164972;28;20124;-68
2021/06/27 03:28:09;;;;;;;13.70;12.70;;;14.30;80.60;;;;;;5155937;28;21059;-68
2021/06/27 03:30:41;;;;;;;13.65;12.65;;;14.30;81.20;;;;;;5161533;28;20073;-68
2021/06/27 03:33:13;;;;;;;13.07;12.07;;;14.30;80.60;;;;;;5165640;28;20054;-69
2021/06/27 03:35:45;;;;;;;13.15;12.05;;;14.30;80.40;;;;;;5163550;28;20058;-69
2021/06/27 03:38:23;;;;;;;13.77;12.57;;;14.30;80.80;;;;;;5157939;28;20053;-68
2021/06/27 03:40:55;;;;;;;12.90;12.00;;;14.20;80.70;;;;;;5162519;28;20075;-68
2021/06/27 03:43:27;;;;;;;13.30;12.30;;;14.20;80.20;;;;;;5158427;28;20120;-68
2021/06/27 03:45:59;;;;;;;13.38;12.38;;;14.20;80.50;;;;;;5160778;28;20158;-68
2021/06/27 03:48:32;;;;;;;13.35;12.35;;;14.30;79.80;;;;;;5161706;28;20061;-68
2021/06/27 03:51:04;;;;;;;13.63;12.63;;;14.30;80.70;;;;;;5158431;28;20137;-68
2021/06/27 03:53:36;;;;;;;13.70;12.70;;;14.30;81.50;;;;;;5160067;28;20046;-68
2021/06/27 03:56:08;;;;;;;13.90;12.82;;;14.30;81.60;;;;;;5158610;28;20085;-68
2021/06/27 03:58:40;;;;;;;13.82;12.63;;;14.40;81.80;;;;;;5158896;28;20046;-68
2021/06/27 04:01:12;;;;;;;14.20;13.00;;;14.40;81.70;;;;;;5159355;28;20054;-67
2021/06/27 04:03:44;;;;;;;14.40;13.30;;;14.40;82.20;;;;;;5161044;28;20074;-68
2021/06/27 04:06:17;;;;;;;14.30;13.20;;;14.40;82.30;;;;;;5159789;28;20165;-68
2021/06/27 04:08:49;;;;;;;14.27;13.20;;;14.40;82.50;;;;;;5160764;28;20096;-68
2021/06/27 04:11:21;;;;;;;14.32;13.23;;;14.40;82.40;;;;;;5161942;28;20093;-68
2021/06/27 04:13:53;;;;;;;13.95;12.85;;;14.40;82.20;;;;;;5159134;28;20468;-68
2021/06/27 04:16:28;;;;;;;14.07;12.88;;;14.30;82.40;;;;;;5158219;28;20109;-68
2021/06/27 04:19:00;;;;;;;13.93;12.93;;;14.40;82.70;;;;;;5160139;28;20129;-70
2021/06/27 04:21:32;;;;;;;13.68;12.68;;;14.40;82.00;;;;;;5159789;28;20077;-68
2021/06/27 04:24:04;;;;;;;14.18;13.00;;;14.40;82.50;;;;;;5159539;28;20672;-68
2021/06/27 04:26:36;;;;;;;13.90;12.90;;;14.40;82.50;;;;;;5158880;28;20081;-68
2021/06/27 04:29:13;;;;;;;14.50;13.27;;;14.30;82.70;;;;;;5158062;28;20707;-68
2021/06/27 04:31:45;;;;;;;14.10;12.90;;;14.20;82.90;;;;;;5160637;28;20109;-69
2021/06/27 04:34:19;;;;;;;14.07;12.85;;;14.10;83.30;;;;;;5160758;28;20092;-69
2021/06/27 04:36:51;;;;;;;14.10;13.00;;;14.10;83.30;;;;;;5155849;28;20050;-69
2021/06/27 04:39:23;;;;;;;14.70;13.50;;;14.20;83.30;;;;;;5155898;28;20070;-69
2021/06/27 04:41:55;;;;;;;14.55;13.35;;;14.30;83.80;;;;;;5157698;28;20136;-69
2021/06/27 04:44:27;;;;;;;14.48;13.30;;;14.30;83.80;;;;;;5158963;28;20145;-68
2021/06/27 04:46:59;;;;;;;14.45;13.18;;;14.30;83.70;;;;;;5161110;28;20137;-69
2021/06/27 04:49:31;;;;;;;14.68;13.57;;;14.30;83.70;;;;;;5164508;28;20076;-69
2021/06/27 04:52:03;;;;;;;14.30;13.20;;;14.30;84.30;;;;;;5162897;28;20106;-69
2021/06/27 04:54:37;;;;;;;14.80;13.60;;;14.40;82.90;;;;;;5165581;28;20085;-69
2021/06/27 04:57:08;;;;;;;16.98;15.68;;;14.40;84.00;;;;;;5159883;28;20141;-68
2021/06/27 04:59:40;;;;;;;14.80;13.70;;;14.50;83.90;;;;;;5160546;28;20121;-68
2021/06/27 05:02:12;;;;;;;15.18;13.98;;;14.60;82.80;;;;;;5162080;28;20046;-68
2021/06/27 05:04:44;;;;;;;15.38;14.18;;;14.70;83.00;;;;;;5163120;28;20062;-68
2021/06/27 05:07:16;;;;;;;17.83;16.52;;;14.70;83.30;;;;;;5160345;28;20121;-71
2021/06/27 05:09:49;;;;;;;14.60;13.50;;;14.80;83.20;;;;;;5159406;28;20117;-68
2021/06/27 05:12:21;;;;;;;15.05;13.95;;;14.90;83.50;;;;;;5161291;28;20874;-70
2021/06/27 05:14:54;;;;;;;14.30;13.20;;;14.90;83.20;;;;;;5162773;28;20054;-69
2021/06/27 05:17:26;;;;;;;14.90;13.77;;;15.00;83.10;;;;;;5159263;28;20046;-69
2021/06/27 05:19:58;;;;;;;14.73;13.63;;;15.10;82.90;;;;;;5159396;28;20050;-69
2021/06/27 05:22:30;;;;;;;15.20;13.98;;;15.20;83.40;;;;;;5160415;28;20050;-68
2021/06/27 05:25:02;;;;;;;15.10;14.00;;;15.20;83.40;;;;;;5162298;28;20034;-69
2021/06/27 05:27:34;;;;;;;15.60;14.38;;;15.30;83.50;;;;;;5161577;28;20173;-69
2021/06/27 05:30:07;;;;;;;15.57;14.38;;;15.40;84.10;;;;;;5159229;28;20467;-69
2021/06/27 05:32:40;;;;;;;15.23;14.02;;;15.50;83.30;;;;;;5175833;28;20034;-69
2021/06/27 05:35:12;;;;;;;15.25;14.10;;;15.50;83.00;;;;;;5159869;28;20046;-69
2021/06/27 05:37:44;;;;;;;15.50;14.30;;;15.60;82.50;;;;;;5162170;28;20078;-69
2021/06/27 05:40:16;;;;;;;15.23;14.10;;;15.70;82.90;;;;;;5161886;28;20046;-69
2021/06/27 05:42:48;;;;;;;15.20;14.02;;;15.80;81.90;;;;;;5161528;28;20074;-69
2021/06/27 05:45:20;;;;;;;15.07;13.98;;;15.90;82.40;;;;;;5134538;28;20518;-69
2021/06/27 05:47:52;;;;;;;18.23;16.83;;;16.00;81.20;;;;;;5158373;28;20586;-69
2021/06/27 05:50:24;;;;;;;16.65;15.25;;;16.10;81.90;;;;;;5160030;28;20052;-69
2021/06/27 05:52:56;;;;;;;15.65;14.45;;;16.20;82.20;;;;;;5161100;28;20148;-69
2021/06/27 05:55:28;;;;;;;15.75;14.50;;;16.20;81.60;;;;;;5159261;28;21156;-69
2021/06/27 05:57:59;;;;;;;15.85;14.65;;;16.30;82.10;;;;;;5160666;28;20096;-70
2021/06/27 06:00:31;;;;;;;15.35;14.15;;;16.20;82.00;;;;;;5157679;28;20097;-68
2021/06/27 06:03:04;;;;;;;22.08;19.90;;;16.20;82.50;;;;;;5160680;28;20042;-69
2021/06/27 06:05:36;;;;;;;15.60;14.45;;;16.40;82.70;;;;;;5158708;28;20129;-69
2021/06/27 06:08:08;;;;;;;16.13;14.93;;;16.60;82.30;;;;;;5157452;28;20061;-69
2021/06/27 06:10:39;;;;;;;16.33;15.10;;;16.80;82.50;;;;;;5157995;28;20082;-69
2021/06/27 06:13:11;;;;;;;15.88;14.65;;;17.10;82.10;;;;;;5170238;28;20133;-69
2021/06/27 06:15:43;;;;;;;16.23;15.02;;;17.30;82.10;;;;;;5157078;28;20129;-70
2021/06/27 06:18:16;;;;;;;16.63;15.23;;;17.50;81.10;;;;;;5158002;28;20125;-69
2021/06/27 06:20:47;;;;;;;17.25;15.82;;;17.70;80.00;;;;;;5156763;28;20105;-71
2021/06/27 06:23:19;;;;;;;17.23;15.82;;;17.80;80.00;;;;;;5155824;28;20042;-69
2021/06/27 06:25:52;;;;;;;16.55;15.10;;;18.00;78.60;;;;;;5157905;28;20046;-70
2021/06/27 06:28:24;;;;;;;17.33;15.88;;;18.10;79.50;;;;;;5154818;28;20520;-69
2021/06/27 06:30:56;;;;;;;16.30;14.95;;;18.20;77.90;;;;;;5157219;28;20096;-69
2021/06/27 06:33:28;;;;;;;15.55;14.35;;;18.30;78.00;;;;;;5157218;28;20034;-69
2021/06/27 06:36:00;;;;;;;25.65;22.92;;;18.40;78.00;;;;;;5158063;28;20053;-68
2021/06/27 06:38:32;;;;;;;27.00;23.60;;;18.40;77.30;;;;;;5156909;28;20101;-69
2021/06/27 06:41:04;;;;;;;16.25;14.95;;;18.50;76.00;;;;;;5157931;28;20179;-70
2021/06/27 06:43:36;;;;;;;20.33;18.42;;;18.40;76.50;;;;;;5161349;28;20125;-69
2021/06/27 06:46:08;;;;;;;18.77;17.02;;;18.40;75.90;;;;;;5160529;28;20047;-70
2021/06/27 06:48:40;;;;;;;18.08;16.58;;;18.40;74.90;;;;;;5162306;28;20070;-69
2021/06/27 06:51:12;;;;;;;23.98;21.42;;;18.40;76.50;;;;;;5160211;28;20043;-69
2021/06/27 06:53:44;;;;;;;22.77;20.45;;;18.50;76.50;;;;;;5161907;28;20659;-70
2021/06/27 06:56:16;;;;;;;17.00;15.60;;;18.50;76.80;;;;;;5161380;28;20161;-68
2021/06/27 06:58:48;;;;;;;18.30;16.80;;;18.50;76.70;;;;;;5160536;28;20041;-69
2021/06/27 07:01:20;;;;;;;17.75;16.20;;;18.60;76.60;;;;;;5159316;28;20128;-70
2021/06/27 07:03:52;;;;;;;17.25;15.95;;;18.70;77.00;;;;;;5162859;28;20044;-68
2021/06/27 07:06:24;;;;;;;16.33;15.13;;;18.70;76.00;;;;;;5161482;28;20038;-71
2021/06/27 07:08:56;;;;;;;16.95;15.65;;;18.80;74.70;;;;;;5160186;28;20046;-70
2021/06/27 07:11:28;;;;;;;16.50;15.30;;;18.80;75.40;;;;;;5163840;28;20034;-70
2021/06/27 07:14:00;;;;;;;16.60;15.40;;;18.90;75.00;;;;;;5157722;28;20125;-70
2021/06/27 07:16:32;;;;;;;17.00;15.70;;;19.00;74.50;;;;;;5153967;28;20041;-70
2021/06/27 07:19:04;;;;;;;17.25;15.70;;;19.10;72.90;;;;;;5158524;28;20050;-71
2021/06/27 07:21:39;;;;;;;16.52;15.32;;;19.20;72.10;;;;;;5155780;28;20335;-70
2021/06/27 07:24:11;;;;;;;16.98;15.68;;;19.30;72.80;;;;;;5160296;28;20038;-69
2021/06/27 07:26:43;;;;;;;17.00;15.73;;;19.50;72.40;;;;;;5135439;28;20046;-69
2021/06/27 07:29:15;;;;;;;17.17;15.90;;;19.60;72.70;;;;;;5159097;28;20038;-68
2021/06/27 07:31:47;;;;;;;17.30;15.75;;;19.80;72.40;;;;;;5158898;28;20107;-68
2021/06/27 07:34:20;;;;;;;16.88;15.48;;;19.90;71.90;;;;;;5157430;28;20046;-69
2021/06/27 07:36:52;;;;;;;17.45;15.95;;;19.90;72.50;;;;;;5156438;28;20046;-69
2021/06/27 07:39:24;;;;;;;16.70;15.50;;;20.10;70.20;;;;;;5156882;28;20165;-68
2021/06/27 07:41:56;;;;;;;16.85;15.50;;;20.20;70.50;;;;;;5156625;28;20488;-69
2021/06/27 07:44:28;;;;;;;17.10;15.90;;;20.30;66.00;;;;;;5157453;28;20104;-68
2021/06/27 07:47:00;;;;;;;17.02;15.75;;;20.40;67.20;;;;;;5157303;28;20109;-70
2021/06/27 07:49:31;;;;;;;17.08;15.85;;;20.50;67.30;;;;;;5156355;28;20523;-71
2021/06/27 07:52:04;;;;;;;17.42;16.13;;;20.60;65.80;;;;;;5157975;28;20042;-70
2021/06/27 07:54:36;;;;;;;17.38;16.05;;;20.80;65.50;;;;;;5156834;28;20129;-70
2021/06/27 07:57:08;;;;;;;17.83;16.38;;;20.90;66.20;;;;;;5156599;28;20134;-72
2021/06/27 07:59:40;;;;;;;17.60;16.30;;;20.90;65.80;;;;;;5158265;28;20139;-70
2021/06/27 08:02:12;;;;;;;17.42;16.13;;;21.00;67.40;;;;;;5156477;28;20145;-69
2021/06/27 08:04:44;;;;;;;17.83;16.42;;;21.20;66.90;;;;;;5157715;28;20100;-70
2021/06/27 08:07:16;;;;;;;17.58;16.27;;;21.20;64.10;;;;;;5157816;28;20137;-70
2021/06/27 08:09:48;;;;;;;17.80;16.50;;;21.40;63.50;;;;;;5159893;28;20081;-70
2021/06/27 08:12:19;;;;;;;18.02;16.63;;;21.40;64.50;;;;;;5160979;28;20153;-70
2021/06/27 08:14:51;;;;;;;17.92;16.63;;;21.50;64.40;;;;;;5158540;28;20047;-70
2021/06/27 08:17:23;;;;;;;17.85;16.55;;;21.60;65.00;;;;;;5158494;28;20468;-69
2021/06/27 08:19:55;;;;;;;18.02;16.73;;;21.70;66.60;;;;;;5162616;28;20508;-70
2021/06/27 08:22:27;;;;;;;17.98;16.67;;;21.80;65.60;;;;;;5164084;28;20073;-70
2021/06/27 08:24:59;;;;;;;17.73;16.35;;;21.90;65.80;;;;;;5161863;28;20038;-70
2021/06/27 08:27:31;;;;;;;17.95;16.65;;;22.00;65.80;;;;;;5163358;28;20132;-70
2021/06/27 08:30:07;;;;;;;17.83;16.52;;;22.00;65.30;;;;;;5162076;28;20118;-70
2021/06/27 08:32:43;;;;;;;18.15;16.75;;;22.10;64.80;;;;;;5162080;28;20511;-70
2021/06/27 08:35:22;;;;;;;17.85;16.55;;;22.20;65.00;;;;;;5161776;28;20101;-70
2021/06/27 08:37:53;;;;;;;17.67;16.38;;;22.30;63.30;;;;;;5160997;28;20132;-70
2021/06/27 08:40:25;;;;;;;17.90;16.60;;;22.40;63.30;;;;;;5168953;28;20077;-70
2021/06/27 08:42:59;;;;;;;17.33;16.13;;;22.50;62.40;;;;;;5165084;28;20075;-70
2021/06/27 08:45:32;;;;;;;17.95;16.70;;;22.50;61.20;;;;;;5160210;28;20066;-70
2021/06/27 08:48:05;;;;;;;18.08;16.50;;;22.70;62.00;;;;;;5160639;28;20050;-70
2021/06/27 08:50:39;;;;;;;17.98;16.70;;;22.70;62.40;;;;;;5164490;28;20077;-70
2021/06/27 08:53:11;;;;;;;17.80;16.50;;;22.80;61.60;;;;;;5163596;28;20042;-70
2021/06/27 08:55:43;;;;;;;17.90;16.60;;;22.80;61.90;;;;;;5161848;28;20471;-70
2021/06/27 08:58:15;;;;;;;18.10;16.73;;;23.00;61.30;;;;;;5161594;28;20574;-70
2021/06/27 09:00:47;;;;;;;17.95;16.65;;;23.00;60.90;;;;;;5159630;28;20141;-70
2021/06/27 09:03:19;;;;;;;17.77;16.38;;;23.00;60.30;;;;;;5162610;28;20129;-71
2021/06/27 09:05:51;;;;;;;17.98;16.48;;;23.00;60.40;;;;;;5160802;28;20069;-72
2021/06/27 09:08:23;;;;;;;18.52;17.23;;;23.10;61.40;;;;;;5162798;28;20043;-70
2021/06/27 09:10:55;;;;;;;17.65;16.25;;;23.20;61.60;;;;;;5163847;28;20134;-70
2021/06/27 09:13:39;;;;;;;17.85;16.55;;;23.20;61.90;;;;;;5166062;28;20107;-70
2021/06/27 09:16:20;;;;;;;17.98;16.63;;;23.20;61.40;;;;;;5162332;28;20575;-72
2021/06/27 09:19:00;;;;;;;17.70;16.40;;;23.30;61.80;;;;;;5161078;28;20054;-72
2021/06/27 09:21:31;;;;;;;17.42;16.13;;;23.30;60.70;;;;;;5160735;28;20085;-70
2021/06/27 09:24:04;;;;;;;17.92;16.63;;;23.40;60.70;;;;;;5163238;28;20512;-70
2021/06/27 09:26:38;;;;;;;17.80;16.58;;;23.50;62.40;;;;;;5161177;28;20186;-71
2021/06/27 09:29:24;;;;;;;18.55;17.13;;;23.50;60.40;;;;;;5161516;28;20062;-70
2021/06/27 09:31:56;;;;;;;18.90;17.23;;;23.60;61.40;;;;;;5163399;28;20073;-70
2021/06/27 09:34:41;;;;;;;17.67;16.38;;;23.70;62.20;;;;;;5162307;28;20039;-70
2021/06/27 09:37:14;;;;;;;18.05;16.75;;;23.80;62.80;;;;;;5163594;28;20460;-70
2021/06/27 09:40:01;;;;;;;18.40;17.00;;;24.00;62.90;;;;;;5165294;28;20046;-70
2021/06/27 09:42:33;;;;;;;18.55;17.15;;;24.00;59.20;;;;;;5162469;28;20712;-70
2021/06/27 09:45:07;;;;;;;18.20;16.75;;;24.00;60.30;;;;;;5162441;28;20043;-70
2021/06/27 09:48:03;;;;;;;18.85;17.35;;;24.10;59.90;;;;;;5162110;28;20046;-71
2021/06/27 09:50:35;;;;;;;18.27;16.98;;;24.10;58.80;;;;;;5159145;28;20124;-70
2021/06/27 09:53:38;;;;;;;18.13;16.83;;;24.20;57.80;;;;;;5163175;28;20038;-70
2021/06/27 09:56:10;;;;;;;18.42;17.13;;;24.20;57.90;;;;;;5161765;28;20046;-69
2021/06/27 09:59:08;;;;;;;18.17;16.77;;;24.20;57.00;;;;;;5159877;28;20415;-70
2021/06/27 10:01:41;;;;;;;18.30;17.00;;;24.20;57.90;;;;;;5163076;28;20042;-70
2021/06/27 10:04:34;;;;;;;17.95;16.65;;;24.20;55.80;;;;;;5161639;28;20038;-70
2021/06/27 10:07:07;;;;;;;18.20;16.90;;;24.30;58.00;;;;;;5162389;28;20042;-70
2021/06/27 10:09:41;;;;;;;18.23;16.92;;;24.50;58.40;;;;;;5163430;28;20104;-70
2021/06/27 10:12:19;;;;;;;18.55;17.25;;;24.60;57.90;;;;;;5159463;28;20101;-73
2021/06/27 10:14:53;;;;;;;17.98;16.67;;;24.50;57.10;;;;;;5163630;28;20089;-70
2021/06/27 10:17:28;;;;;;;18.10;16.80;;;24.60;56.90;;;;;;5160535;28;20039;-70
2021/06/27 10:20:00;;;;;;;18.30;16.90;;;24.70;58.20;;;;;;5162316;28;20589;-70
2021/06/27 10:22:32;;;;;;;18.50;17.20;;;24.80;57.00;;;;;;5160876;28;20057;-70
2021/06/27 10:25:08;;;;;;;18.25;16.95;;;24.80;57.10;;;;;;5160376;28;20129;-70
2021/06/27 10:27:41;;;;;;;18.23;16.92;;;24.90;55.70;;;;;;5160667;28;20081;-70
2021/06/27 10:30:13;;;;;;;17.60;16.40;;;25.00;55.30;;;;;;5164873;28;20560;-70
2021/06/27 10:32:45;;;;;;;18.42;17.02;;;24.90;53.20;;;;;;5161802;28;20072;-70
2021/06/27 10:35:17;;;;;;;18.38;17.08;;;25.10;55.00;;;;;;5161443;28;20049;-71
2021/06/27 10:37:52;;;;;;;18.33;17.02;;;25.00;53.10;;;;;;5162824;28;20136;-70
2021/06/27 10:40:23;;;;;;;18.90;17.50;;;25.00;51.90;;;;;;5157936;28;20093;-70
2021/06/27 10:42:58;;;;;;;17.95;16.75;;;25.10;54.60;;;;;;5160074;28;20069;-71
2021/06/27 10:45:40;;;;;;;18.25;16.95;;;25.20;53.10;;;;;;5160432;28;20069;-70
2021/06/27 10:48:33;;;;;;;18.02;16.73;;;25.30;52.20;;;;;;5156902;28;20038;-70
2021/06/27 10:51:09;;;;;;;18.40;17.10;;;25.20;52.00;;;;;;5159566;28;20092;-71
2021/06/27 10:54:08;;;;;;;17.98;16.55;;;25.30;51.30;;;;;;5155495;28;20189;-70
2021/06/27 10:57:17;;;;;;;18.30;16.90;;;25.30;50.30;;;;;;5161641;28;20392;-71
2021/06/27 10:59:54;;;;;;;18.00;16.70;;;25.50;52.10;;;;;;5092192;29;20669;-70
2021/06/27 11:02:30;;;;;;;18.15;16.85;;;25.60;50.60;;;;;;5149192;28;20133;-70
2021/06/27 11:05:33;;;;;;;18.27;16.98;;;25.60;50.30;;;;;;5159281;28;20074;-71
2021/06/27 11:08:07;;;;;;;18.13;16.83;;;25.70;48.80;;;;;;5159348;28;20134;-70
2021/06/27 11:10:39;;;;;;;18.05;16.75;;;25.80;51.60;;;;;;5160336;28;20074;-70
2021/06/27 11:13:12;;;;;;;18.40;17.10;;;25.90;49.50;;;;;;5159635;28;20034;-70
2021/06/27 11:15:44;;;;;;;17.90;16.60;;;26.00;47.00;;;;;;5160804;28;20046;-70
2021/06/27 11:18:33;;;;;;;18.08;16.77;;;26.00;48.60;;;;;;5156929;28;20762;-70
2021/06/27 11:21:09;;;;;;;18.30;17.00;;;26.20;47.20;;;;;;5150853;28;20046;-70
2021/06/27 11:23:47;;;;;;;18.27;16.98;;;26.20;48.50;;;;;;5158990;28;20050;-70
2021/06/27 11:26:40;;;;;;;17.63;16.42;;;26.40;49.00;;;;;;5156362;28;20128;-71
2021/06/27 11:29:33;;;;;;;18.38;17.08;;;26.40;46.20;;;;;;5158483;28;20096;-70
2021/06/27 11:32:07;;;;;;;18.30;17.00;;;26.50;46.20;;;;;;5155356;28;20100;-70
2021/06/27 11:34:55;;;;;;;17.90;16.70;;;26.60;45.10;;;;;;5160705;28;20105;-70
2021/06/27 11:37:27;;;;;;;18.42;17.13;;;26.70;45.30;;;;;;5158256;28;20069;-70
2021/06/27 11:40:01;;;;;;;18.42;17.13;;;26.80;44.30;;;;;;5153458;28;20465;-70
2021/06/27 11:42:36;;;;;;;19.10;17.70;;;26.80;45.50;;;;;;5159091;28;20082;-70
2021/06/27 11:45:08;;;;;;;18.60;17.30;;;26.80;44.20;;;;;;5159411;28;20038;-70
2021/06/27 11:47:49;;;;;;;18.73;17.25;;;26.90;44.10;;;;;;5161908;28;20073;-70
2021/06/27 11:50:30;;;;;;;19.15;17.70;;;26.90;42.40;;;;;;5158862;28;20041;-71
2021/06/27 11:53:12;;;;;;;18.63;17.33;;;27.00;43.20;;;;;;5156397;28;20042;-70
2021/06/27 11:55:48;;;;;;;18.40;17.10;;;27.10;43.80;;;;;;5154588;28;20074;-70
2021/06/27 11:58:25;;;;;;;18.20;16.90;;;27.20;44.70;;;;;;5158679;28;20044;-71
2021/06/27 12:01:03;;;;;;;18.48;17.17;;;27.30;43.10;;;;;;5155130;28;20046;-71
2021/06/27 12:03:45;;;;;;;18.90;17.60;;;27.40;43.30;;;;;;5159576;28;20126;-71
2021/06/27 12:06:17;;;;;;;19.00;17.70;;;27.50;42.00;;;;;;5161237;28;20133;-71
2021/06/27 12:08:49;;;;;;;18.33;17.02;;;27.60;42.00;;;;;;5156212;28;20164;-70
2021/06/27 12:11:21;;;;;;;18.45;17.15;;;27.70;42.70;;;;;;5155284;28;20172;-71
2021/06/27 12:13:56;;;;;;;18.48;17.17;;;27.70;40.60;;;;;;5159726;28;20535;-72
2021/06/27 12:16:31;;;;;;;19.27;17.77;;;27.80;40.60;;;;;;5152639;28;20113;-70
2021/06/27 12:19:03;;;;;;;18.80;17.42;;;27.70;39.40;;;;;;5152030;28;20037;-70
2021/06/27 12:21:35;;;;;;;18.90;17.60;;;27.80;41.90;;;;;;5156048;28;20049;-70
2021/06/27 12:24:07;;;;;;;18.95;17.45;;;27.80;39.80;;;;;;5154400;28;20026;-71
2021/06/27 12:26:39;;;;;;;18.65;17.25;;;28.00;42.30;;;;;;5151110;28;20137;-71
2021/06/27 12:29:11;;;;;;;18.63;17.33;;;28.00;43.40;;;;;;5158634;28;20918;-71
2021/06/27 12:31:43;;;;;;;18.85;17.55;;;28.10;43.00;;;;;;5155881;28;20491;-71
2021/06/27 12:34:17;;;;;;;19.00;17.67;;;28.20;42.70;;;;;;5159342;28;20515;-70
2021/06/27 12:36:49;;;;;;;19.05;17.70;;;28.10;41.10;;;;;;5156013;28;20051;-70
2021/06/27 12:39:23;;;;;;;18.80;17.40;;;28.20;41.50;;;;;;5157829;28;20112;-71
2021/06/27 12:42:17;;;;;;;18.50;17.20;;;28.20;42.40;;;;;;5156678;28;20046;-70
2021/06/27 12:44:49;;;;;;;19.00;17.65;;;28.20;42.50;;;;;;5158332;28;20150;-70
2021/06/27 12:47:28;;;;;;;18.67;17.38;;;28.20;40.70;;;;;;5158955;28;20133;-71
2021/06/27 12:50:00;;;;;;;18.40;17.10;;;28.20;41.30;;;;;;5158726;28;20046;-71
2021/06/27 12:52:32;;;;;;;19.10;17.70;;;28.20;43.00;;;;;;5158419;28;20066;-71
2021/06/27 12:55:11;;;;;;;18.70;17.40;;;28.30;41.50;;;;;;5156393;28;20165;-71
2021/06/27 12:57:55;;;;;;;18.35;17.05;;;28.30;42.20;;;;;;5156592;28;20587;-71
2021/06/27 13:00:31;;;;;;;18.15;16.75;;;28.40;41.50;;;;;;5160171;28;20070;-70
2021/06/27 13:03:15;;;;;;;18.98;17.50;;;28.40;40.50;;;;;;5159867;28;20048;-71